sensor_id;sensor_type;location;lat;lon;timestamp;P1;durP1;ratioP1;P2;durP2;ratioP2
40729;SDS011;26418;50.070;8.436;2023-03-31T00:02:00;7.47;;;1.80;;
40729;SDS011;26418;50.070;8.436;2023-03-31T00:04:31;5.63;;;1.40;;
40729;SDS011;26418;50.070;8.436;2023-03-31T00:06:57;6.70;;;1.70;;
40729;SDS011;26418;50.070;8.436;2023-03-31T00:09:23;4.40;;;1.25;;
40729;SDS011;26418;50.070;8.436;2023-03-31T00:11:49;6.18;;;1.45;;
40729;SDS011;26418;50.070;8.436;2023-03-31T00:14:17;4.07;;;1.40;;
40729;SDS011;26418;50.070;8.436;2023-03-31T00:16:44;5.53;;;1.58;;
40729;SDS011;26418;50.070;8.436;2023-03-31T00:19:10;8.85;;;2.05;;
40729;SDS011;26418;50.070;8.436;2023-03-31T00:21:43;8.32;;;2.10;;
40729;SDS011;26418;50.070;8.436;2023-03-31T00:24:09;4.72;;;1.23;;
40729;SDS011;26418;50.070;8.436;2023-03-31T00:26:36;6.07;;;2.03;;
40729;SDS011;26418;50.070;8.436;2023-03-31T00:29:06;6.72;;;2.10;;
40729;SDS011;26418;50.070;8.436;2023-03-31T00:31:33;7.93;;;2.00;;
40729;SDS011;26418;50.070;8.436;2023-03-31T00:34:00;6.18;;;2.17;;
40729;SDS011;26418;50.070;8.436;2023-03-31T00:36:26;8.40;;;1.92;;
40729;SDS011;26418;50.070;8.436;2023-03-31T00:38:59;2.67;;;1.38;;
40729;SDS011;26418;50.070;8.436;2023-03-31T00:41:45;6.07;;;1.70;;
40729;SDS011;26418;50.070;8.436;2023-03-31T00:44:19;4.53;;;1.40;;
40729;SDS011;26418;50.070;8.436;2023-03-31T00:46:52;10.82;;;1.60;;
40729;SDS011;26418;50.070;8.436;2023-03-31T00:49:42;5.65;;;1.15;;
40729;SDS011;26418;50.070;8.436;2023-03-31T00:54:40;5.00;;;1.60;;
40729;SDS011;26418;50.070;8.436;2023-03-31T00:57:09;8.48;;;2.15;;
40729;SDS011;26418;50.070;8.436;2023-03-31T00:59:41;6.85;;;2.30;;
40729;SDS011;26418;50.070;8.436;2023-03-31T01:02:11;6.72;;;1.75;;
40729;SDS011;26418;50.070;8.436;2023-03-31T01:04:40;6.45;;;1.67;;
40729;SDS011;26418;50.070;8.436;2023-03-31T01:07:52;8.40;;;2.40;;
40729;SDS011;26418;50.070;8.436;2023-03-31T01:12:29;7.95;;;2.40;;
40729;SDS011;26418;50.070;8.436;2023-03-31T01:14:58;8.98;;;1.90;;
40729;SDS011;26418;50.070;8.436;2023-03-31T01:17:24;6.85;;;1.65;;
40729;SDS011;26418;50.070;8.436;2023-03-31T01:33:09;6.03;;;1.50;;
40729;SDS011;26418;50.070;8.436;2023-03-31T01:41:37;8.93;;;1.88;;
40729;SDS011;26418;50.070;8.436;2023-03-31T01:50:10;4.78;;;2.53;;
40729;SDS011;26418;50.070;8.436;2023-03-31T01:52:48;7.55;;;2.28;;
40729;SDS011;26418;50.070;8.436;2023-03-31T02:00:33;7.05;;;2.20;;
40729;SDS011;26418;50.070;8.436;2023-03-31T02:03:29;5.90;;;1.63;;
40729;SDS011;26418;50.070;8.436;2023-03-31T02:05:59;2.42;;;1.35;;
40729;SDS011;26418;50.070;8.436;2023-03-31T02:08:43;5.18;;;1.60;;
40729;SDS011;26418;50.070;8.436;2023-03-31T02:11:13;2.38;;;1.40;;
40729;SDS011;26418;50.070;8.436;2023-03-31T02:13:39;3.50;;;1.63;;
40729;SDS011;26418;50.070;8.436;2023-03-31T02:16:09;3.97;;;2.17;;
40729;SDS011;26418;50.070;8.436;2023-03-31T02:18:43;2.65;;;1.30;;
40729;SDS011;26418;50.070;8.436;2023-03-31T02:21:10;3.97;;;1.70;;
40729;SDS011;26418;50.070;8.436;2023-03-31T02:23:38;5.60;;;1.77;;
40729;SDS011;26418;50.070;8.436;2023-03-31T02:26:24;6.07;;;1.83;;
40729;SDS011;26418;50.070;8.436;2023-03-31T02:28:55;9.57;;;2.97;;
40729;SDS011;26418;50.070;8.436;2023-03-31T02:34:08;3.08;;;1.95;;
40729;SDS011;26418;50.070;8.436;2023-03-31T02:36:33;4.57;;;2.33;;
40729;SDS011;26418;50.070;8.436;2023-03-31T02:39:11;6.10;;;2.50;;
40729;SDS011;26418;50.070;8.436;2023-03-31T02:41:44;6.88;;;2.38;;
40729;SDS011;26418;50.070;8.436;2023-03-31T02:44:16;3.20;;;1.73;;
40729;SDS011;26418;50.070;8.436;2023-03-31T02:46:52;7.47;;;2.28;;
40729;SDS011;26418;50.070;8.436;2023-03-31T02:49:38;8.30;;;3.58;;
40729;SDS011;26418;50.070;8.436;2023-03-31T03:12:12;6.85;;;3.13;;
40729;SDS011;26418;50.070;8.436;2023-03-31T03:18:05;8.83;;;2.33;;
40729;SDS011;26418;50.070;8.436;2023-03-31T03:20:37;4.63;;;2.40;;
40729;SDS011;26418;50.070;8.436;2023-03-31T03:23:34;4.70;;;2.58;;
40729;SDS011;26418;50.070;8.436;2023-03-31T03:26:00;3.90;;;2.47;;
40729;SDS011;26418;50.070;8.436;2023-03-31T03:28:48;9.48;;;2.92;;
40729;SDS011;26418;50.070;8.436;2023-03-31T03:31:15;11.25;;;3.65;;
40729;SDS011;26418;50.070;8.436;2023-03-31T03:33:51;7.85;;;3.60;;
40729;SDS011;26418;50.070;8.436;2023-03-31T03:36:16;8.88;;;4.30;;
40729;SDS011;26418;50.070;8.436;2023-03-31T03:38:43;7.30;;;4.03;;
40729;SDS011;26418;50.070;8.436;2023-03-31T03:41:09;9.20;;;3.40;;
40729;SDS011;26418;50.070;8.436;2023-03-31T03:43:35;7.30;;;3.20;;
40729;SDS011;26418;50.070;8.436;2023-03-31T03:46:01;8.23;;;3.90;;
40729;SDS011;26418;50.070;8.436;2023-03-31T03:48:27;8.10;;;3.50;;
40729;SDS011;26418;50.070;8.436;2023-03-31T03:50:52;9.15;;;2.92;;
40729;SDS011;26418;50.070;8.436;2023-03-31T03:53:19;9.13;;;3.58;;
40729;SDS011;26418;50.070;8.436;2023-03-31T03:55:45;5.55;;;3.08;;
40729;SDS011;26418;50.070;8.436;2023-03-31T03:58:14;5.85;;;2.53;;
40729;SDS011;26418;50.070;8.436;2023-03-31T04:00:41;4.00;;;2.17;;
40729;SDS011;26418;50.070;8.436;2023-03-31T04:05:41;8.57;;;3.22;;
40729;SDS011;26418;50.070;8.436;2023-03-31T04:08:07;6.90;;;2.78;;
40729;SDS011;26418;50.070;8.436;2023-03-31T04:10:33;10.95;;;4.35;;
40729;SDS011;26418;50.070;8.436;2023-03-31T04:13:00;13.93;;;4.50;;
40729;SDS011;26418;50.070;8.436;2023-03-31T04:15:27;10.38;;;4.10;;
40729;SDS011;26418;50.070;8.436;2023-03-31T04:17:58;10.75;;;4.22;;
40729;SDS011;26418;50.070;8.436;2023-03-31T04:20:24;10.40;;;3.70;;
40729;SDS011;26418;50.070;8.436;2023-03-31T04:22:54;9.35;;;3.75;;
40729;SDS011;26418;50.070;8.436;2023-03-31T04:25:22;10.27;;;4.00;;
40729;SDS011;26418;50.070;8.436;2023-03-31T04:27:48;10.82;;;4.82;;
40729;SDS011;26418;50.070;8.436;2023-03-31T04:30:19;9.75;;;3.85;;
40729;SDS011;26418;50.070;8.436;2023-03-31T04:32:55;12.70;;;3.58;;
40729;SDS011;26418;50.070;8.436;2023-03-31T04:35:23;9.82;;;3.35;;
40729;SDS011;26418;50.070;8.436;2023-03-31T04:37:51;10.30;;;2.97;;
40729;SDS011;26418;50.070;8.436;2023-03-31T04:40:24;10.13;;;2.70;;
40729;SDS011;26418;50.070;8.436;2023-03-31T04:42:51;5.53;;;2.17;;
40729;SDS011;26418;50.070;8.436;2023-03-31T04:45:16;3.50;;;1.50;;
40729;SDS011;26418;50.070;8.436;2023-03-31T04:47:42;11.93;;;2.90;;
40729;SDS011;26418;50.070;8.436;2023-03-31T04:50:08;9.30;;;2.88;;
40729;SDS011;26418;50.070;8.436;2023-03-31T04:52:37;5.53;;;2.17;;
40729;SDS011;26418;50.070;8.436;2023-03-31T04:55:04;5.50;;;2.30;;
40729;SDS011;26418;50.070;8.436;2023-03-31T04:57:30;8.15;;;3.00;;
40729;SDS011;26418;50.070;8.436;2023-03-31T04:59:56;7.85;;;2.20;;
40729;SDS011;26418;50.070;8.436;2023-03-31T05:02:24;7.80;;;2.20;;
40729;SDS011;26418;50.070;8.436;2023-03-31T05:05:30;8.65;;;2.47;;
40729;SDS011;26418;50.070;8.436;2023-03-31T05:08:05;7.93;;;2.50;;
40729;SDS011;26418;50.070;8.436;2023-03-31T05:10:36;7.55;;;3.97;;
40729;SDS011;26418;50.070;8.436;2023-03-31T05:13:22;10.18;;;3.47;;
40729;SDS011;26418;50.070;8.436;2023-03-31T05:16:07;7.97;;;2.42;;
40729;SDS011;26418;50.070;8.436;2023-03-31T05:25:49;5.35;;;1.50;;
40729;SDS011;26418;50.070;8.436;2023-03-31T05:28:19;7.82;;;1.83;;
40729;SDS011;26418;50.070;8.436;2023-03-31T05:31:05;7.25;;;1.75;;
40729;SDS011;26418;50.070;8.436;2023-03-31T05:33:33;3.97;;;1.08;;
40729;SDS011;26418;50.070;8.436;2023-03-31T05:36:06;5.32;;;1.20;;
40729;SDS011;26418;50.070;8.436;2023-03-31T05:39:03;4.43;;;1.92;;
40729;SDS011;26418;50.070;8.436;2023-03-31T05:41:32;8.32;;;1.92;;
40729;SDS011;26418;50.070;8.436;2023-03-31T05:43:58;3.97;;;1.35;;
40729;SDS011;26418;50.070;8.436;2023-03-31T05:46:27;6.35;;;2.13;;
40729;SDS011;26418;50.070;8.436;2023-03-31T05:49:01;6.28;;;1.50;;
40729;SDS011;26418;50.070;8.436;2023-03-31T05:51:29;6.75;;;1.50;;
40729;SDS011;26418;50.070;8.436;2023-03-31T05:53:54;5.47;;;1.75;;
40729;SDS011;26418;50.070;8.436;2023-03-31T05:56:20;6.47;;;1.67;;
40729;SDS011;26418;50.070;8.436;2023-03-31T05:58:47;15.20;;;2.03;;
40729;SDS011;26418;50.070;8.436;2023-03-31T06:01:16;11.18;;;2.00;;
40729;SDS011;26418;50.070;8.436;2023-03-31T06:03:54;6.70;;;1.75;;
40729;SDS011;26418;50.070;8.436;2023-03-31T06:06:23;8.80;;;1.92;;
40729;SDS011;26418;50.070;8.436;2023-03-31T06:08:50;6.13;;;1.63;;
40729;SDS011;26418;50.070;8.436;2023-03-31T06:11:46;2.05;;;1.30;;
40729;SDS011;26418;50.070;8.436;2023-03-31T06:14:13;3.15;;;1.52;;
40729;SDS011;26418;50.070;8.436;2023-03-31T06:16:41;5.97;;;1.88;;
40729;SDS011;26418;50.070;8.436;2023-03-31T06:19:06;5.22;;;1.50;;
40729;SDS011;26418;50.070;8.436;2023-03-31T06:21:38;2.72;;;1.17;;
40729;SDS011;26418;50.070;8.436;2023-03-31T06:24:13;3.50;;;1.38;;
40729;SDS011;26418;50.070;8.436;2023-03-31T06:26:39;5.55;;;1.58;;
40729;SDS011;26418;50.070;8.436;2023-03-31T06:29:08;3.15;;;1.10;;
40729;SDS011;26418;50.070;8.436;2023-03-31T06:32:11;4.97;;;1.35;;
40729;SDS011;26418;50.070;8.436;2023-03-31T06:34:38;4.80;;;1.83;;
40729;SDS011;26418;50.070;8.436;2023-03-31T06:37:04;5.35;;;1.50;;
40729;SDS011;26418;50.070;8.436;2023-03-31T06:39:34;12.02;;;2.60;;
40729;SDS011;26418;50.070;8.436;2023-03-31T06:42:00;4.80;;;1.85;;
40729;SDS011;26418;50.070;8.436;2023-03-31T06:44:26;5.53;;;2.03;;
40729;SDS011;26418;50.070;8.436;2023-03-31T06:46:51;4.82;;;1.50;;
40729;SDS011;26418;50.070;8.436;2023-03-31T06:49:35;9.23;;;1.80;;
40729;SDS011;26418;50.070;8.436;2023-03-31T06:56:30;7.72;;;1.90;;
40729;SDS011;26418;50.070;8.436;2023-03-31T06:59:20;9.18;;;2.20;;
40729;SDS011;26418;50.070;8.436;2023-03-31T07:01:46;14.38;;;3.08;;
40729;SDS011;26418;50.070;8.436;2023-03-31T07:04:15;4.32;;;2.05;;
40729;SDS011;26418;50.070;8.436;2023-03-31T07:06:50;11.13;;;2.67;;
40729;SDS011;26418;50.070;8.436;2023-03-31T07:09:40;9.73;;;3.10;;
40729;SDS011;26418;50.070;8.436;2023-03-31T07:24:53;11.13;;;3.83;;
40729;SDS011;26418;50.070;8.436;2023-03-31T07:27:21;11.50;;;3.78;;
40729;SDS011;26418;50.070;8.436;2023-03-31T07:30:12;7.47;;;3.88;;
40729;SDS011;26418;50.070;8.436;2023-03-31T07:32:40;8.68;;;4.45;;
40729;SDS011;26418;50.070;8.436;2023-03-31T07:35:06;16.25;;;5.07;;
40729;SDS011;26418;50.070;8.436;2023-03-31T07:37:40;14.23;;;4.38;;
40729;SDS011;26418;50.070;8.436;2023-03-31T07:40:23;13.10;;;4.38;;
40729;SDS011;26418;50.070;8.436;2023-03-31T07:42:51;17.73;;;4.93;;
40729;SDS011;26418;50.070;8.436;2023-03-31T07:45:56;9.13;;;4.35;;
40729;SDS011;26418;50.070;8.436;2023-03-31T07:48:49;6.97;;;3.78;;
40729;SDS011;26418;50.070;8.436;2023-03-31T07:51:54;12.00;;;3.65;;
40729;SDS011;26418;50.070;8.436;2023-03-31T07:54:19;7.50;;;3.80;;
40729;SDS011;26418;50.070;8.436;2023-03-31T07:56:49;6.78;;;3.05;;
40729;SDS011;26418;50.070;8.436;2023-03-31T07:59:16;8.13;;;3.35;;
40729;SDS011;26418;50.070;8.436;2023-03-31T08:01:42;10.98;;;3.90;;
40729;SDS011;26418;50.070;8.436;2023-03-31T08:04:10;4.55;;;3.08;;
40729;SDS011;26418;50.070;8.436;2023-03-31T08:06:36;9.25;;;3.53;;
40729;SDS011;26418;50.070;8.436;2023-03-31T08:09:03;6.10;;;2.85;;
40729;SDS011;26418;50.070;8.436;2023-03-31T08:11:32;8.43;;;3.03;;
40729;SDS011;26418;50.070;8.436;2023-03-31T08:14:03;7.07;;;3.42;;
40729;SDS011;26418;50.070;8.436;2023-03-31T08:16:28;4.80;;;2.42;;
40729;SDS011;26418;50.070;8.436;2023-03-31T08:18:54;7.13;;;2.42;;
40729;SDS011;26418;50.070;8.436;2023-03-31T08:21:20;7.85;;;2.97;;
40729;SDS011;26418;50.070;8.436;2023-03-31T08:23:45;4.63;;;2.67;;
40729;SDS011;26418;50.070;8.436;2023-03-31T08:26:15;8.30;;;3.42;;
40729;SDS011;26418;50.070;8.436;2023-03-31T08:28:48;8.32;;;3.03;;
40729;SDS011;26418;50.070;8.436;2023-03-31T08:31:14;9.23;;;3.05;;
40729;SDS011;26418;50.070;8.436;2023-03-31T08:33:42;6.22;;;2.20;;
40729;SDS011;26418;50.070;8.436;2023-03-31T08:36:09;8.20;;;2.22;;
40729;SDS011;26418;50.070;8.436;2023-03-31T08:38:39;5.07;;;1.80;;
40729;SDS011;26418;50.070;8.436;2023-03-31T08:41:09;3.88;;;2.05;;
40729;SDS011;26418;50.070;8.436;2023-03-31T08:43:46;6.32;;;2.40;;
40729;SDS011;26418;50.070;8.436;2023-03-31T08:46:14;4.40;;;1.88;;
40729;SDS011;26418;50.070;8.436;2023-03-31T08:48:47;4.57;;;2.17;;
40729;SDS011;26418;50.070;8.436;2023-03-31T08:53:53;3.95;;;1.80;;
40729;SDS011;26418;50.070;8.436;2023-03-31T08:56:23;11.85;;;2.08;;
40729;SDS011;26418;50.070;8.436;2023-03-31T08:58:51;4.22;;;1.83;;
40729;SDS011;26418;50.070;8.436;2023-03-31T09:06:38;5.28;;;1.90;;
40729;SDS011;26418;50.070;8.436;2023-03-31T09:09:15;3.55;;;1.60;;
40729;SDS011;26418;50.070;8.436;2023-03-31T09:12:09;4.05;;;1.58;;
40729;SDS011;26418;50.070;8.436;2023-03-31T09:17:30;4.07;;;2.00;;
40729;SDS011;26418;50.070;8.436;2023-03-31T09:20:06;5.25;;;1.83;;
40729;SDS011;26418;50.070;8.436;2023-03-31T09:22:48;3.85;;;1.67;;
40729;SDS011;26418;50.070;8.436;2023-03-31T09:25:21;4.93;;;1.55;;
40729;SDS011;26418;50.070;8.436;2023-03-31T09:27:51;5.88;;;1.77;;
40729;SDS011;26418;50.070;8.436;2023-03-31T09:33:03;4.40;;;1.80;;
40729;SDS011;26418;50.070;8.436;2023-03-31T09:35:35;3.45;;;1.90;;
40729;SDS011;26418;50.070;8.436;2023-03-31T09:38:01;3.90;;;1.65;;
40729;SDS011;26418;50.070;8.436;2023-03-31T09:40:27;8.18;;;2.25;;
40729;SDS011;26418;50.070;8.436;2023-03-31T09:42:57;3.95;;;2.10;;
40729;SDS011;26418;50.070;8.436;2023-03-31T09:45:30;5.35;;;1.90;;
40729;SDS011;26418;50.070;8.436;2023-03-31T09:48:00;7.50;;;2.47;;
40729;SDS011;26418;50.070;8.436;2023-03-31T09:50:41;6.60;;;2.40;;
40729;SDS011;26418;50.070;8.436;2023-03-31T09:53:27;9.15;;;2.65;;
40729;SDS011;26418;50.070;8.436;2023-03-31T09:56:03;5.87;;;2.50;;
40729;SDS011;26418;50.070;8.436;2023-03-31T09:58:39;8.65;;;2.90;;
40729;SDS011;26418;50.070;8.436;2023-03-31T10:01:06;6.13;;;2.60;;
40729;SDS011;26418;50.070;8.436;2023-03-31T10:03:54;5.55;;;1.42;;
40729;SDS011;26418;50.070;8.436;2023-03-31T10:06:21;9.55;;;2.55;;
40729;SDS011;26418;50.070;8.436;2023-03-31T10:09:01;9.15;;;2.35;;
40729;SDS011;26418;50.070;8.436;2023-03-31T10:11:29;8.68;;;2.53;;
40729;SDS011;26418;50.070;8.436;2023-03-31T10:14:14;10.45;;;2.53;;
40729;SDS011;26418;50.070;8.436;2023-03-31T10:21:47;8.95;;;1.92;;
40729;SDS011;26418;50.070;8.436;2023-03-31T10:24:20;4.35;;;0.95;;
40729;SDS011;26418;50.070;8.436;2023-03-31T10:26:47;5.15;;;1.10;;
40729;SDS011;26418;50.070;8.436;2023-03-31T10:29:27;3.63;;;0.82;;
40729;SDS011;26418;50.070;8.436;2023-03-31T10:35:23;4.68;;;1.35;;
40729;SDS011;26418;50.070;8.436;2023-03-31T10:37:54;10.02;;;1.48;;
40729;SDS011;26418;50.070;8.436;2023-03-31T10:40:27;6.10;;;1.30;;
40729;SDS011;26418;50.070;8.436;2023-03-31T10:46:02;5.18;;;1.00;;
40729;SDS011;26418;50.070;8.436;2023-03-31T10:48:35;4.00;;;1.10;;
40729;SDS011;26418;50.070;8.436;2023-03-31T10:51:04;2.13;;;0.85;;
40729;SDS011;26418;50.070;8.436;2023-03-31T10:53:41;7.53;;;1.33;;
40729;SDS011;26418;50.070;8.436;2023-03-31T10:56:27;5.03;;;0.95;;
40729;SDS011;26418;50.070;8.436;2023-03-31T11:22:33;2.70;;;0.50;;
40729;SDS011;26418;50.070;8.436;2023-03-31T11:42:05;5.50;;;1.63;;
40729;SDS011;26418;50.070;8.436;2023-03-31T11:44:39;8.45;;;2.30;;
40729;SDS011;26418;50.070;8.436;2023-03-31T11:47:17;8.27;;;2.13;;
40729;SDS011;26418;50.070;8.436;2023-03-31T11:57:46;13.40;;;2.53;;
40729;SDS011;26418;50.070;8.436;2023-03-31T12:00:47;7.20;;;1.95;;
40729;SDS011;26418;50.070;8.436;2023-03-31T12:06:11;10.07;;;2.50;;
40729;SDS011;26418;50.070;8.436;2023-03-31T12:08:57;12.60;;;3.38;;
40729;SDS011;26418;50.070;8.436;2023-03-31T12:20:20;12.30;;;3.88;;
40729;SDS011;26418;50.070;8.436;2023-03-31T12:22:52;14.55;;;2.70;;
40729;SDS011;26418;50.070;8.436;2023-03-31T12:25:20;7.70;;;1.33;;
40729;SDS011;26418;50.070;8.436;2023-03-31T12:27:52;6.07;;;1.50;;
40729;SDS011;26418;50.070;8.436;2023-03-31T12:32:51;7.90;;;1.15;;
40729;SDS011;26418;50.070;8.436;2023-03-31T12:35:25;2.63;;;0.90;;
40729;SDS011;26418;50.070;8.436;2023-03-31T12:54:49;7.47;;;1.63;;
40729;SDS011;26418;50.070;8.436;2023-03-31T12:57:29;4.85;;;1.08;;
40729;SDS011;26418;50.070;8.436;2023-03-31T13:02:36;9.05;;;1.50;;
40729;SDS011;26418;50.070;8.436;2023-03-31T13:08:08;8.88;;;1.73;;
40729;SDS011;26418;50.070;8.436;2023-03-31T13:10:55;9.48;;;1.60;;
40729;SDS011;26418;50.070;8.436;2023-03-31T13:13:22;9.18;;;1.42;;
40729;SDS011;26418;50.070;8.436;2023-03-31T13:15:58;7.20;;;1.80;;
40729;SDS011;26418;50.070;8.436;2023-03-31T13:18:26;8.80;;;2.00;;
40729;SDS011;26418;50.070;8.436;2023-03-31T13:21:00;9.15;;;1.63;;
40729;SDS011;26418;50.070;8.436;2023-03-31T13:23:29;7.07;;;2.10;;
40729;SDS011;26418;50.070;8.436;2023-03-31T13:26:02;5.60;;;1.40;;
40729;SDS011;26418;50.070;8.436;2023-03-31T13:28:38;9.65;;;2.67;;
40729;SDS011;26418;50.070;8.436;2023-03-31T13:31:10;6.75;;;2.05;;
40729;SDS011;26418;50.070;8.436;2023-03-31T13:33:56;3.38;;;0.98;;
40729;SDS011;26418;50.070;8.436;2023-03-31T13:41:50;3.72;;;0.93;;
40729;SDS011;26418;50.070;8.436;2023-03-31T13:52:18;2.13;;;0.68;;
40729;SDS011;26418;50.070;8.436;2023-03-31T14:00:36;3.80;;;1.30;;
40729;SDS011;26418;50.070;8.436;2023-03-31T14:07:05;4.07;;;1.00;;
40729;SDS011;26418;50.070;8.436;2023-03-31T14:12:00;4.20;;;1.05;;
40729;SDS011;26418;50.070;8.436;2023-03-31T14:14:43;4.05;;;1.38;;
40729;SDS011;26418;50.070;8.436;2023-03-31T14:17:08;4.38;;;1.20;;
40729;SDS011;26418;50.070;8.436;2023-03-31T14:25:25;4.22;;;1.08;;
40729;SDS011;26418;50.070;8.436;2023-03-31T14:34:06;6.55;;;1.20;;
40729;SDS011;26418;50.070;8.436;2023-03-31T14:37:00;10.40;;;1.25;;
40729;SDS011;26418;50.070;8.436;2023-03-31T14:39:33;7.10;;;1.17;;
40729;SDS011;26418;50.070;8.436;2023-03-31T14:42:03;7.40;;;1.40;;
40729;SDS011;26418;50.070;8.436;2023-03-31T14:44:35;4.75;;;1.58;;
40729;SDS011;26418;50.070;8.436;2023-03-31T14:47:01;4.90;;;1.00;;
40729;SDS011;26418;50.070;8.436;2023-03-31T14:49:34;7.97;;;1.67;;
40729;SDS011;26418;50.070;8.436;2023-03-31T14:52:04;5.55;;;1.15;;
40729;SDS011;26418;50.070;8.436;2023-03-31T14:54:42;6.15;;;1.63;;
40729;SDS011;26418;50.070;8.436;2023-03-31T14:57:12;4.43;;;1.10;;
40729;SDS011;26418;50.070;8.436;2023-03-31T14:59:46;6.93;;;1.20;;
40729;SDS011;26418;50.070;8.436;2023-03-31T15:02:19;8.82;;;1.60;;
40729;SDS011;26418;50.070;8.436;2023-03-31T15:04:57;7.95;;;1.67;;
40729;SDS011;26418;50.070;8.436;2023-03-31T15:07:31;5.32;;;0.98;;
40729;SDS011;26418;50.070;8.436;2023-03-31T15:09:57;3.78;;;1.15;;
40729;SDS011;26418;50.070;8.436;2023-03-31T15:12:24;2.10;;;0.40;;
40729;SDS011;26418;50.070;8.436;2023-03-31T15:15:10;1.73;;;0.57;;
40729;SDS011;26418;50.070;8.436;2023-03-31T15:17:39;4.60;;;1.27;;
40729;SDS011;26418;50.070;8.436;2023-03-31T15:20:39;3.00;;;0.77;;
40729;SDS011;26418;50.070;8.436;2023-03-31T15:23:03;6.20;;;1.00;;
40729;SDS011;26418;50.070;8.436;2023-03-31T15:25:45;4.05;;;0.98;;
40729;SDS011;26418;50.070;8.436;2023-03-31T15:28:12;6.45;;;1.23;;
40729;SDS011;26418;50.070;8.436;2023-03-31T15:30:42;8.05;;;1.45;;
40729;SDS011;26418;50.070;8.436;2023-03-31T15:33:43;3.28;;;0.88;;
40729;SDS011;26418;50.070;8.436;2023-03-31T15:36:06;7.47;;;1.08;;
40729;SDS011;26418;50.070;8.436;2023-03-31T15:38:33;5.65;;;1.73;;
40729;SDS011;26418;50.070;8.436;2023-03-31T15:40:59;2.47;;;0.70;;
40729;SDS011;26418;50.070;8.436;2023-03-31T15:43:41;2.60;;;0.55;;
40729;SDS011;26418;50.070;8.436;2023-03-31T15:46:15;3.33;;;0.85;;
40729;SDS011;26418;50.070;8.436;2023-03-31T15:48:54;4.97;;;1.02;;
40729;SDS011;26418;50.070;8.436;2023-03-31T15:51:27;3.97;;;1.00;;
40729;SDS011;26418;50.070;8.436;2023-03-31T15:54:40;4.80;;;0.70;;
40729;SDS011;26418;50.070;8.436;2023-03-31T15:57:15;1.83;;;0.60;;
40729;SDS011;26418;50.070;8.436;2023-03-31T16:08:54;2.90;;;0.77;;
40729;SDS011;26418;50.070;8.436;2023-03-31T16:12:27;1.25;;;0.40;;
40729;SDS011;26418;50.070;8.436;2023-03-31T16:18:46;5.45;;;0.80;;
40729;SDS011;26418;50.070;8.436;2023-03-31T16:24:55;5.43;;;1.60;;
40729;SDS011;26418;50.070;8.436;2023-03-31T16:27:21;5.82;;;1.55;;
40729;SDS011;26418;50.070;8.436;2023-03-31T16:33:51;5.55;;;1.27;;
40729;SDS011;26418;50.070;8.436;2023-03-31T16:37:00;4.78;;;1.42;;
40729;SDS011;26418;50.070;8.436;2023-03-31T16:39:49;11.38;;;1.77;;
40729;SDS011;26418;50.070;8.436;2023-03-31T16:42:22;15.02;;;1.60;;
40729;SDS011;26418;50.070;8.436;2023-03-31T16:44:57;9.93;;;2.63;;
40729;SDS011;26418;50.070;8.436;2023-03-31T16:48:05;11.70;;;2.17;;
40729;SDS011;26418;50.070;8.436;2023-03-31T16:50:54;6.00;;;1.58;;
40729;SDS011;26418;50.070;8.436;2023-03-31T16:53:45;11.13;;;1.67;;
40729;SDS011;26418;50.070;8.436;2023-03-31T16:56:35;4.63;;;1.38;;
40729;SDS011;26418;50.070;8.436;2023-03-31T16:59:38;5.07;;;1.27;;
40729;SDS011;26418;50.070;8.436;2023-03-31T17:02:28;6.25;;;1.10;;
40729;SDS011;26418;50.070;8.436;2023-03-31T17:05:15;8.27;;;1.98;;
40729;SDS011;26418;50.070;8.436;2023-03-31T17:07:41;6.00;;;1.65;;
40729;SDS011;26418;50.070;8.436;2023-03-31T17:10:07;4.93;;;1.20;;
40729;SDS011;26418;50.070;8.436;2023-03-31T17:12:36;6.25;;;1.35;;
40729;SDS011;26418;50.070;8.436;2023-03-31T17:15:04;7.90;;;1.67;;
40729;SDS011;26418;50.070;8.436;2023-03-31T17:17:30;4.72;;;1.23;;
40729;SDS011;26418;50.070;8.436;2023-03-31T17:19:56;6.57;;;1.40;;
40729;SDS011;26418;50.070;8.436;2023-03-31T17:22:25;7.28;;;1.45;;
40729;SDS011;26418;50.070;8.436;2023-03-31T17:24:51;4.35;;;1.20;;
40729;SDS011;26418;50.070;8.436;2023-03-31T17:27:23;6.18;;;1.73;;
40729;SDS011;26418;50.070;8.436;2023-03-31T17:30:05;7.43;;;2.13;;
40729;SDS011;26418;50.070;8.436;2023-03-31T17:32:34;9.65;;;2.05;;
40729;SDS011;26418;50.070;8.436;2023-03-31T17:35:00;7.40;;;2.42;;
40729;SDS011;26418;50.070;8.436;2023-03-31T17:37:26;6.00;;;2.15;;
40729;SDS011;26418;50.070;8.436;2023-03-31T17:39:52;6.32;;;1.65;;
40729;SDS011;26418;50.070;8.436;2023-03-31T17:42:17;5.53;;;1.30;;
40729;SDS011;26418;50.070;8.436;2023-03-31T17:44:44;3.28;;;1.25;;
40729;SDS011;26418;50.070;8.436;2023-03-31T17:47:16;3.53;;;1.70;;
40729;SDS011;26418;50.070;8.436;2023-03-31T17:49:47;6.15;;;1.90;;
40729;SDS011;26418;50.070;8.436;2023-03-31T17:53:09;10.00;;;2.13;;
40729;SDS011;26418;50.070;8.436;2023-03-31T17:58:57;6.40;;;1.60;;
40729;SDS011;26418;50.070;8.436;2023-03-31T18:01:28;6.47;;;1.33;;
40729;SDS011;26418;50.070;8.436;2023-03-31T18:03:54;8.07;;;2.15;;
40729;SDS011;26418;50.070;8.436;2023-03-31T18:06:20;7.43;;;1.55;;
40729;SDS011;26418;50.070;8.436;2023-03-31T18:08:46;8.75;;;1.83;;
40729;SDS011;26418;50.070;8.436;2023-03-31T18:11:12;3.67;;;1.33;;
40729;SDS011;26418;50.070;8.436;2023-03-31T18:13:38;14.32;;;2.13;;
40729;SDS011;26418;50.070;8.436;2023-03-31T18:16:05;8.15;;;1.80;;
40729;SDS011;26418;50.070;8.436;2023-03-31T18:18:36;7.18;;;1.83;;
40729;SDS011;26418;50.070;8.436;2023-03-31T18:21:04;5.78;;;1.60;;
40729;SDS011;26418;50.070;8.436;2023-03-31T18:23:32;5.90;;;1.55;;
40729;SDS011;26418;50.070;8.436;2023-03-31T18:25:59;5.53;;;1.40;;
40729;SDS011;26418;50.070;8.436;2023-03-31T18:28:25;8.13;;;1.88;;
40729;SDS011;26418;50.070;8.436;2023-03-31T18:30:51;7.72;;;1.92;;
40729;SDS011;26418;50.070;8.436;2023-03-31T18:33:18;4.43;;;1.60;;
40729;SDS011;26418;50.070;8.436;2023-03-31T18:35:44;7.60;;;1.35;;
40729;SDS011;26418;50.070;8.436;2023-03-31T18:38:15;5.47;;;1.10;;
40729;SDS011;26418;50.070;8.436;2023-03-31T18:41:01;7.43;;;1.33;;
40729;SDS011;26418;50.070;8.436;2023-03-31T18:43:27;6.85;;;1.20;;
40729;SDS011;26418;50.070;8.436;2023-03-31T18:45:56;3.90;;;0.98;;
40729;SDS011;26418;50.070;8.436;2023-03-31T18:49:07;4.93;;;1.27;;
40729;SDS011;26418;50.070;8.436;2023-03-31T18:51:37;6.13;;;1.45;;
40729;SDS011;26418;50.070;8.436;2023-03-31T18:54:04;11.77;;;1.17;;
40729;SDS011;26418;50.070;8.436;2023-03-31T18:56:58;3.88;;;1.00;;
40729;SDS011;26418;50.070;8.436;2023-03-31T18:59:25;5.15;;;1.10;;
40729;SDS011;26418;50.070;8.436;2023-03-31T19:01:51;4.40;;;0.73;;
40729;SDS011;26418;50.070;8.436;2023-03-31T19:04:16;6.43;;;1.20;;
40729;SDS011;26418;50.070;8.436;2023-03-31T19:06:43;2.95;;;1.00;;
40729;SDS011;26418;50.070;8.436;2023-03-31T19:09:09;3.45;;;0.90;;
40729;SDS011;26418;50.070;8.436;2023-03-31T19:11:36;5.93;;;1.13;;
40729;SDS011;26418;50.070;8.436;2023-03-31T19:14:08;4.63;;;1.10;;
40729;SDS011;26418;50.070;8.436;2023-03-31T19:16:50;3.45;;;0.98;;
40729;SDS011;26418;50.070;8.436;2023-03-31T19:19:16;2.40;;;0.88;;
40729;SDS011;26418;50.070;8.436;2023-03-31T19:21:42;5.35;;;1.02;;
40729;SDS011;26418;50.070;8.436;2023-03-31T19:24:09;4.90;;;1.20;;
40729;SDS011;26418;50.070;8.436;2023-03-31T19:26:35;4.97;;;1.08;;
40729;SDS011;26418;50.070;8.436;2023-03-31T19:29:02;4.22;;;1.08;;
40729;SDS011;26418;50.070;8.436;2023-03-31T19:31:54;6.35;;;1.55;;
40729;SDS011;26418;50.070;8.436;2023-03-31T19:34:20;5.25;;;1.77;;
40729;SDS011;26418;50.070;8.436;2023-03-31T19:36:46;3.67;;;1.35;;
40729;SDS011;26418;50.070;8.436;2023-03-31T19:39:13;3.25;;;1.17;;
40729;SDS011;26418;50.070;8.436;2023-03-31T19:41:38;5.40;;;0.82;;